METAR ET TAF INFORMATION
METAR FOR ENSO
ADDS - METARS form results

(0114 UTC 21 August 2019)
Data provider http://aviationweather.gov/metar/data/
 
Forecast for: ENSO (STORD/SOERSTOKKE, NO)
Text: TAF ENSO 201400Z 2015/2018 27008KT 9999 -SHRA FEW015TCU BKN030
Forecast period: 1500 to 1800 UTC 20 August 2019
Forecast type: FROM: standard forecast or significant change
Winds: from the W (270 degrees) at 9 MPH (8 knots; 4.1 m/s)
Visibility: 6 or more miles 10+ km)
Ceiling: 3000 feet AGL
Clouds: few clouds at 1500 feet AGL
broken clouds at 3000 feet AGL
Weather: -SHRA  (light rain showers)
Text: PROB30
Forecast period: 1500 to 1800 UTC 20 August 2019
Forecast type: TEMPORARY: The following changes expected for less than half the time period
Visibility: missing
Ceiling: 1200 feet AGL
Clouds: broken clouds at 1200 feet AGL
Weather: SHRA  (rain showers)

 AÉROPORT DE AÉROPORT

 INFORMATIONS DE PISTE
Piste 14 Longueur de la piste 3937 ft Largeur de la piste 98 ft
Élévation de la piste 153 ft Seuil de la piste déplacés 0 ft Runway heading 145
Piste 32 Longueur de la piste 3937 ft Largeur de la piste 98 ft
Élévation de la piste 152 ft Seuil de la piste déplacés 0 ft Runway heading 325

 AÉROPORT FRÉQUENCES
Type AFIS Nom INFO Féquence 120.2 MHZ

 SIDA DE NAVIGATION
Type VOR-DME Nom Stord Féquence 113400 KHZ



Powered by Virtual Airlines Manager [v2.6.2]